Time;durP1;ratioP1;P1;durP2;ratioP2;P2;SDS_P1;SDS_P2;PMS_P1;PMS_P2;Temp;Humidity;BMP_temperature;BMP_pressure;BME280_temperature;BME280_humidity;BME280_pressure;Samples;Min_cycle;Max_cycle;Signal;HPM_P1;HPM_P2
2023/10/26 03:00:37;;;;;;;1999.90;999.90;;;9.40;99.90;;;;;;6100821;23;20998;31
2023/10/26 03:03:03;;;;;;;1999.90;999.90;;;9.40;99.90;;;;;;4917400;29;20060;-77
2023/10/26 03:05:29;;;;;;;1999.90;999.90;;;9.40;99.90;;;;;;4935170;29;20058;-78
2023/10/26 03:07:55;;;;;;;1999.90;999.90;;;9.40;99.90;;;;;;4934866;29;20063;-77
2023/10/26 03:10:22;;;;;;;1999.90;999.90;;;9.40;99.90;;;;;;4934726;29;20043;-78
2023/10/26 03:12:49;;;;;;;1999.90;999.90;;;9.40;99.90;;;;;;4934766;29;20067;-79
2023/10/26 03:15:15;;;;;;;1999.90;999.90;;;9.40;99.90;;;;;;4934722;29;20036;-78
2023/10/26 03:17:41;;;;;;;1999.90;999.90;;;9.40;99.90;;;;;;4934850;29;20079;-78
2023/10/26 03:20:08;;;;;;;1999.90;999.90;;;9.40;99.90;;;;;;4934878;29;20082;-78
2023/10/26 03:22:34;;;;;;;1999.90;999.90;;;9.40;99.90;;;;;;4934597;29;20087;-79
2023/10/26 03:25:00;;;;;;;1999.90;999.90;;;9.40;99.90;;;;;;4918870;29;20044;-79
2023/10/26 03:27:26;;;;;;;1999.90;999.90;;;9.40;99.90;;;;;;4934840;29;20194;-77
2023/10/26 03:29:53;;;;;;;1999.90;999.90;;;9.40;99.90;;;;;;4934654;29;20126;-77
2023/10/26 03:32:18;;;;;;;1999.90;999.90;;;9.40;99.90;;;;;;4934832;29;20058;-78
2023/10/26 03:34:44;;;;;;;1999.90;999.90;;;9.40;99.90;;;;;;4934772;29;20047;-78
2023/10/26 03:37:09;;;;;;;1999.90;999.90;;;9.40;99.90;;;;;;4938522;29;20533;-77
2023/10/26 03:39:35;;;;;;;1999.90;999.90;;;9.40;99.90;;;;;;4938892;29;20051;-77
2023/10/26 03:42:01;;;;;;;1999.90;999.90;;;9.40;99.90;;;;;;4938663;29;20488;-77
2023/10/26 03:44:28;;;;;;;1999.90;999.90;;;9.30;99.90;;;;;;4922815;29;20040;-79
2023/10/26 03:46:54;;;;;;;1999.90;999.90;;;9.30;99.90;;;;;;4922620;29;20036;-78
2023/10/26 03:49:20;;;;;;;1999.90;999.90;;;9.30;99.90;;;;;;4938358;29;20039;-80
2023/10/26 03:51:48;;;;;;;1999.90;999.90;;;9.30;99.90;;;;;;4938163;29;20055;-78
2023/10/26 03:54:14;;;;;;;1999.90;999.90;;;9.30;99.90;;;;;;4938175;29;20040;-78
2023/10/26 03:56:40;;;;;;;1999.90;999.90;;;9.30;99.90;;;;;;4938464;29;20094;-79
2023/10/26 03:59:05;;;;;;;1999.90;999.90;;;9.20;99.90;;;;;;4922322;29;20054;-79
2023/10/26 04:01:31;;;;;;;1999.90;999.90;;;9.20;99.90;;;;;;4937894;29;20050;-79
2023/10/26 04:03:57;;;;;;;1999.90;999.90;;;9.20;99.90;;;;;;4938326;29;20045;-79
2023/10/26 04:06:23;;;;;;;1999.90;999.90;;;9.20;99.90;;;;;;4938051;29;20470;-78
2023/10/26 04:08:49;;;;;;;1999.90;999.90;;;9.20;99.90;;;;;;4938238;29;20047;-79
2023/10/26 04:11:17;;;;;;;1999.90;999.90;;;9.10;99.90;;;;;;4937927;29;20051;-79
2023/10/26 04:13:43;;;;;;;1999.90;999.90;;;9.00;99.90;;;;;;4938042;29;20178;-78
2023/10/26 04:16:11;;;;;;;1999.90;999.90;;;9.10;99.90;;;;;;4937864;29;20071;-78
2023/10/26 04:18:36;;;;;;;1999.90;999.90;;;9.00;99.90;;;;;;4937758;29;20569;-79
2023/10/26 04:21:02;;;;;;;1999.90;999.90;;;9.10;99.90;;;;;;4937976;29;20072;-78
2023/10/26 04:23:28;;;;;;;1999.90;999.90;;;9.00;99.90;;;;;;4938026;29;20058;-78
2023/10/26 04:25:54;;;;;;;1999.90;999.90;;;9.00;99.90;;;;;;4937677;29;20047;-77
2023/10/26 04:28:19;;;;;;;1999.90;999.90;;;9.00;99.90;;;;;;4937739;29;20051;-77
2023/10/26 04:30:47;;;;;;;1999.90;999.90;;;9.00;99.90;;;;;;4937595;29;20066;-78
2023/10/26 04:33:15;;;;;;;1999.90;999.90;;;9.00;99.90;;;;;;4937576;29;20051;-78
2023/10/26 04:35:42;;;;;;;1999.90;999.90;;;9.00;99.90;;;;;;4937571;29;20107;-79
2023/10/26 04:38:08;;;;;;;1999.90;999.90;;;9.00;99.90;;;;;;4937754;29;20111;-78
2023/10/26 04:40:38;;;;;;;1999.90;999.90;;;9.00;99.90;;;;;;4937379;29;20480;-78
2023/10/26 04:43:04;;;;;;;1999.90;999.90;;;9.00;99.90;;;;;;4937455;29;20048;-78
2023/10/26 04:45:30;;;;;;;1999.90;999.90;;;9.00;99.90;;;;;;4937347;29;20099;-78
2023/10/26 04:47:55;;;;;;;1999.90;999.90;;;9.00;99.90;;;;;;4936595;29;20055;-78
2023/10/26 04:50:22;;;;;;;1999.90;999.90;;;9.00;99.90;;;;;;4937254;29;20044;-79
2023/10/26 04:52:48;;;;;;;1999.90;999.90;;;9.00;99.90;;;;;;4937562;29;20414;-78
2023/10/26 04:55:13;;;;;;;1999.90;999.90;;;9.00;99.90;;;;;;4937571;29;20051;-77
2023/10/26 04:57:39;;;;;;;1999.90;999.90;;;9.10;99.90;;;;;;4937244;29;20403;-79
2023/10/26 05:00:09;;;;;;;1999.90;999.90;;;9.00;99.90;;;;;;4937189;29;20443;-79
2023/10/26 05:02:35;;;;;;;1999.90;999.90;;;9.10;99.90;;;;;;4936938;29;20096;-79
2023/10/26 05:05:03;;;;;;;1999.90;999.90;;;9.00;99.90;;;;;;4937318;29;20047;-76
2023/10/26 05:07:29;;;;;;;1999.90;999.90;;;9.00;99.90;;;;;;4921130;29;20040;-78
2023/10/26 05:09:56;;;;;;;1999.90;999.90;;;9.00;99.90;;;;;;4938013;29;20420;-79
2023/10/26 05:12:21;;;;;;;1999.90;999.90;;;9.00;99.90;;;;;;4936889;29;20075;-78
2023/10/26 05:14:47;;;;;;;1999.90;999.90;;;9.00;99.90;;;;;;4937879;29;20039;-78
2023/10/26 05:17:13;;;;;;;1999.90;999.90;;;8.90;99.90;;;;;;4937087;29;20079;-78
2023/10/26 05:19:39;;;;;;;1999.90;999.90;;;8.90;99.90;;;;;;4936646;29;20080;-77
2023/10/26 05:22:04;;;;;;;1999.90;999.90;;;8.90;99.90;;;;;;4937013;29;20092;-76
2023/10/26 05:24:30;;;;;;;1999.90;999.90;;;8.90;99.90;;;;;;4936976;29;20038;-77
2023/10/26 05:26:56;;;;;;;1999.90;999.90;;;8.80;99.90;;;;;;4936689;29;20046;-78
2023/10/26 05:29:22;;;;;;;1999.90;999.90;;;8.80;99.90;;;;;;4937655;29;20052;-77
2023/10/26 05:31:47;;;;;;;1999.90;999.90;;;8.80;99.90;;;;;;4936398;29;20059;-79
2023/10/26 05:34:13;;;;;;;1999.90;999.90;;;8.80;99.90;;;;;;4936728;29;20573;-80
2023/10/26 05:36:40;;;;;;;1999.90;999.90;;;8.80;99.90;;;;;;4936386;29;20127;-78
2023/10/26 05:39:06;;;;;;;1999.90;999.90;;;8.80;99.90;;;;;;4936345;29;20094;-78
2023/10/26 05:41:32;;;;;;;1999.90;999.90;;;8.80;99.90;;;;;;4920743;29;20435;-77
2023/10/26 05:43:59;;;;;;;1999.90;999.90;;;8.90;99.90;;;;;;4936591;29;20399;-78
2023/10/26 05:46:25;;;;;;;1999.90;999.90;;;8.80;99.90;;;;;;4936300;29;20039;-78
2023/10/26 05:48:50;;;;;;;1999.90;999.90;;;8.80;99.90;;;;;;4938132;29;20047;-79
2023/10/26 05:51:16;;;;;;;1999.90;999.90;;;8.80;99.90;;;;;;4936183;29;20052;-77
2023/10/26 05:53:41;;;;;;;1999.90;999.90;;;8.80;99.90;;;;;;4937463;29;20047;-78
2023/10/26 05:56:07;;;;;;;1999.90;999.90;;;8.80;99.90;;;;;;4932409;29;20032;-77
2023/10/26 05:58:33;;;;;;;1999.90;999.90;;;8.80;99.90;;;;;;4916370;29;20055;-78
2023/10/26 06:00:59;;;;;;;1999.90;999.90;;;8.70;99.90;;;;;;4916917;29;20444;-78
2023/10/26 06:03:26;;;;;;;1999.90;999.90;;;8.80;99.90;;;;;;4917298;29;20048;-78
2023/10/26 06:06:00;;;;;;;1999.90;999.90;;;8.80;99.90;;;;;;4917218;29;20408;-78
2023/10/26 06:08:26;;;;;;;1999.90;999.90;;;8.70;99.90;;;;;;4917255;29;20044;-78
2023/10/26 06:10:52;;;;;;;1999.90;999.90;;;8.70;99.90;;;;;;4916705;29;20040;-78
2023/10/26 06:13:18;;;;;;;1999.90;999.90;;;8.70;99.90;;;;;;4916853;29;20059;-78
2023/10/26 06:15:45;;;;;;;1999.90;999.90;;;8.70;99.90;;;;;;4916987;29;20044;-78
2023/10/26 06:18:12;;;;;;;1999.90;999.90;;;8.70;99.90;;;;;;4917438;29;20036;-78
2023/10/26 06:20:38;;;;;;;1999.90;999.90;;;8.70;99.90;;;;;;4916575;29;20044;-78
2023/10/26 06:23:04;;;;;;;1999.90;999.90;;;8.60;99.90;;;;;;4916992;29;20072;-78
2023/10/26 06:25:34;;;;;;;1999.90;999.90;;;8.60;99.90;;;;;;4916951;29;20071;-78
2023/10/26 06:28:00;;;;;;;1999.90;999.90;;;8.60;99.90;;;;;;4916988;29;20040;-79
2023/10/26 06:30:26;;;;;;;1999.90;999.90;;;8.60;99.90;;;;;;4916420;29;20408;-79
2023/10/26 06:32:52;;;;;;;1999.90;999.90;;;8.60;99.90;;;;;;4916461;29;20052;-79
2023/10/26 06:35:18;;;;;;;1999.90;999.90;;;8.60;99.90;;;;;;4916228;29;20123;-78
2023/10/26 06:37:43;;;;;;;1999.90;999.90;;;8.60;99.90;;;;;;4916260;29;20212;-78
2023/10/26 06:40:09;;;;;;;1999.90;999.90;;;8.60;99.90;;;;;;4916530;29;20051;-79
2023/10/26 06:42:35;;;;;;;1999.90;999.90;;;8.60;99.90;;;;;;4916192;29;20052;-78
2023/10/26 06:45:02;;;;;;;1999.90;999.90;;;8.60;99.90;;;;;;4916237;29;20044;-78
2023/10/26 06:47:28;;;;;;;1999.90;999.90;;;8.60;99.90;;;;;;4916301;29;20040;-79
2023/10/26 06:49:55;;;;;;;1999.90;999.90;;;8.60;99.90;;;;;;4916768;29;20087;-79
2023/10/26 06:52:20;;;;;;;1999.90;999.90;;;8.60;99.90;;;;;;4917574;29;20079;-79
2023/10/26 06:54:47;;;;;;;1999.90;999.90;;;8.60;99.90;;;;;;4917800;29;20048;-78
2023/10/26 06:57:13;;;;;;;1999.90;999.90;;;8.70;99.90;;;;;;4916253;29;20095;-78
2023/10/26 06:59:41;;;;;;;1999.90;999.90;;;8.70;99.90;;;;;;4916046;29;20036;-78
2023/10/26 07:02:07;;;;;;;1999.90;999.90;;;8.70;99.90;;;;;;4917309;29;20048;-77
2023/10/26 07:04:33;;;;;;;1999.90;999.90;;;8.70;99.90;;;;;;4915871;29;20047;-78
2023/10/26 07:06:59;;;;;;;1999.90;999.90;;;8.70;99.90;;;;;;4916225;29;20039;-78
2023/10/26 07:09:24;;;;;;;1999.90;999.90;;;8.70;99.90;;;;;;4916117;29;20048;-78
2023/10/26 07:11:50;;;;;;;1999.90;999.90;;;8.70;99.90;;;;;;4915711;29;20048;-78
2023/10/26 07:14:16;;;;;;;1999.90;999.90;;;8.70;99.90;;;;;;4915782;29;20092;-77
2023/10/26 07:16:41;;;;;;;1999.90;999.90;;;8.80;99.90;;;;;;4916325;29;20040;-80
2023/10/26 07:19:07;;;;;;;1999.90;999.90;;;8.70;99.90;;;;;;4915814;29;20040;-78
2023/10/26 07:21:35;;;;;;;1999.90;999.90;;;8.70;99.90;;;;;;4916642;29;20103;-79
2023/10/26 07:24:00;;;;;;;1999.90;999.90;;;8.80;99.90;;;;;;4915789;29;20048;-79
2023/10/26 07:26:26;;;;;;;1999.90;999.90;;;8.80;99.90;;;;;;4916121;29;20044;-78
2023/10/26 07:28:52;;;;;;;1999.90;999.90;;;8.80;99.90;;;;;;4915994;29;20048;-78
2023/10/26 07:31:19;;;;;;;1999.90;999.90;;;8.80;99.90;;;;;;4915906;29;20052;-78
2023/10/26 07:33:45;;;;;;;1999.90;999.90;;;8.80;99.90;;;;;;4917180;29;20392;-79
2023/10/26 07:36:11;;;;;;;1999.90;999.90;;;8.80;99.90;;;;;;4915982;29;20040;-79
2023/10/26 07:38:36;;;;;;;1999.90;999.90;;;8.80;99.90;;;;;;4915551;29;20048;-78
2023/10/26 07:41:04;;;;;;;1999.90;999.90;;;8.80;99.90;;;;;;4915913;29;20040;-78
2023/10/26 07:43:30;;;;;;;1999.90;999.90;;;8.80;99.90;;;;;;4916625;29;20052;-78
2023/10/26 07:45:56;;;;;;;1999.90;999.90;;;8.80;99.90;;;;;;4917050;29;20048;-79
2023/10/26 07:48:22;;;;;;;1999.90;999.90;;;8.80;99.90;;;;;;4917054;29;20054;-78
2023/10/26 07:50:48;;;;;;;1999.90;999.90;;;8.90;99.90;;;;;;4915426;29;20083;-78
2023/10/26 07:53:17;;;;;;;1999.90;999.90;;;8.90;99.90;;;;;;4915777;29;20118;-78
2023/10/26 07:55:46;;;;;;;1999.90;999.90;;;8.90;99.90;;;;;;4915821;29;20412;-78
2023/10/26 07:58:11;;;;;;;1999.90;999.90;;;8.90;99.90;;;;;;4916028;29;20494;-78
2023/10/26 08:00:37;;;;;;;1999.90;999.90;;;8.90;99.90;;;;;;4915271;29;20184;-79
2023/10/26 08:03:03;;;;;;;1999.90;999.90;;;8.90;99.90;;;;;;4915742;29;20054;-79
2023/10/26 08:05:29;;;;;;;1999.90;999.90;;;8.80;99.90;;;;;;4915658;29;20123;-79
2023/10/26 08:07:55;;;;;;;1999.90;999.90;;;8.90;99.90;;;;;;4915466;29;20044;-79
2023/10/26 08:10:21;;;;;;;1999.90;999.90;;;8.90;99.90;;;;;;4915556;29;20061;-79
2023/10/26 08:12:51;;;;;;;1999.90;999.90;;;8.90;99.90;;;;;;4915557;29;20500;-78
2023/10/26 08:15:17;;;;;;;1999.90;999.90;;;8.80;99.90;;;;;;4915307;29;20040;-78
2023/10/26 08:17:43;;;;;;;1999.90;999.90;;;8.90;99.90;;;;;;4915530;29;20052;-78
2023/10/26 08:20:09;;;;;;;1999.90;999.90;;;8.90;99.90;;;;;;4915157;29;20522;-79
2023/10/26 08:22:35;;;;;;;1999.90;999.90;;;8.90;99.90;;;;;;4916562;29;20413;-77
2023/10/26 08:25:02;;;;;;;1999.90;999.90;;;8.90;99.90;;;;;;4919077;29;20040;-78
2023/10/26 08:27:29;;;;;;;1999.90;999.90;;;8.90;99.90;;;;;;4919954;29;20062;-77
2023/10/26 08:29:54;;;;;;;1999.90;999.90;;;8.90;99.90;;;;;;4918684;29;20059;-77
2023/10/26 08:32:20;;;;;;;1999.90;999.90;;;9.00;99.90;;;;;;4918633;29;20044;-78
2023/10/26 08:34:46;;;;;;;1999.90;999.90;;;9.00;99.90;;;;;;4918874;29;20047;-78
2023/10/26 08:37:12;;;;;;;1999.90;999.90;;;9.00;99.90;;;;;;4918497;29;20044;-79
2023/10/26 08:39:38;;;;;;;1999.90;999.90;;;9.00;99.90;;;;;;4918550;29;20052;-78
2023/10/26 08:42:04;;;;;;;1999.90;999.90;;;9.10;99.90;;;;;;4918779;29;20108;-80
2023/10/26 08:44:31;;;;;;;1999.90;999.90;;;9.10;99.90;;;;;;4918325;29;20083;-77
2023/10/26 08:47:02;;;;;;;1999.90;999.90;;;9.20;99.90;;;;;;4918481;29;20148;-78
2023/10/26 08:49:30;;;;;;;1999.90;999.90;;;9.20;99.90;;;;;;4918335;29;20048;-78
2023/10/26 08:51:56;;;;;;;1999.90;999.90;;;9.20;99.90;;;;;;4918586;29;20090;-79
2023/10/26 08:54:22;;;;;;;1999.90;999.90;;;9.30;99.90;;;;;;4918561;29;20048;-78
2023/10/26 08:56:48;;;;;;;1999.90;999.90;;;9.30;99.90;;;;;;4918528;29;20503;-77
2023/10/26 08:59:14;;;;;;;1999.90;999.90;;;9.30;99.90;;;;;;4918272;29;20056;-78
2023/10/26 09:01:46;;;;;;;1999.90;999.90;;;9.40;99.90;;;;;;4918071;29;20485;-79
2023/10/26 09:04:14;;;;;;;1999.90;999.90;;;9.40;99.90;;;;;;4918122;29;20044;-78
2023/10/26 09:06:44;;;;;;;1999.90;999.90;;;9.40;99.90;;;;;;4917920;29;20051;-78
2023/10/26 09:09:10;;;;;;;1999.90;999.90;;;9.50;99.90;;;;;;4917973;29;20079;-78
2023/10/26 09:11:35;;;;;;;1999.90;999.90;;;9.40;99.90;;;;;;4918152;29;20123;-79
2023/10/26 09:14:19;;;;;;;1999.90;999.90;;;9.40;99.90;;;;;;4918177;29;20052;-78
2023/10/26 09:16:46;;;;;;;1999.90;999.90;;;9.50;99.90;;;;;;4917794;29;20059;-78
2023/10/26 09:19:18;;;;;;;1999.90;999.90;;;9.50;99.90;;;;;;4917776;29;20052;-78
2023/10/26 09:21:52;;;;;;;1999.90;999.90;;;9.60;99.90;;;;;;4917623;29;20047;-78
2023/10/26 09:24:20;;;;;;;1999.90;999.90;;;9.70;99.90;;;;;;4917873;29;20071;-78
2023/10/26 09:26:46;;;;;;;1999.90;999.90;;;9.70;99.90;;;;;;4917864;29;20144;-78
2023/10/26 09:29:12;;;;;;;1999.90;999.90;;;9.70;99.90;;;;;;4917779;29;20131;-79
2023/10/26 09:31:51;;;;;;;1999.90;999.90;;;9.80;99.90;;;;;;4917548;29;20051;-79
2023/10/26 09:34:17;;;;;;;1999.90;999.90;;;9.80;99.90;;;;;;4918801;29;20071;-79
2023/10/26 09:36:56;;;;;;;1999.90;999.90;;;9.90;99.90;;;;;;4917415;29;20528;-79
2023/10/26 09:39:22;;;;;;;1999.90;999.90;;;9.90;99.90;;;;;;4917410;29;20075;-78
2023/10/26 09:41:49;;;;;;;1999.90;999.90;;;9.90;99.90;;;;;;4917604;29;20132;-78
2023/10/26 09:44:15;;;;;;;1999.90;999.90;;;9.90;99.90;;;;;;4917244;29;20044;-78
2023/10/26 09:46:42;;;;;;;1999.90;999.90;;;9.80;99.90;;;;;;4917263;29;20040;-78
2023/10/26 09:49:07;;;;;;;1999.90;999.90;;;9.80;99.90;;;;;;4917439;29;20134;-78
2023/10/26 09:51:33;;;;;;;1999.90;999.90;;;9.80;99.90;;;;;;4917092;29;20536;-78
2023/10/26 09:54:00;;;;;;;1999.90;999.90;;;9.80;99.90;;;;;;4917194;29;20132;-77
2023/10/26 09:56:29;;;;;;;1999.90;999.90;;;9.90;99.90;;;;;;4917000;29;20127;-77
2023/10/26 09:58:55;;;;;;;1999.90;999.90;;;9.90;99.90;;;;;;4916936;29;20103;-76
2023/10/26 10:01:32;;;;;;;1999.90;999.90;;;9.90;99.90;;;;;;4916632;29;20039;-79
2023/10/26 10:03:58;;;;;;;1999.90;999.90;;;10.00;99.90;;;;;;4917276;29;20414;-77
2023/10/26 10:06:42;;;;;;;1999.90;999.90;;;10.00;99.90;;;;;;4916803;29;20032;-78
2023/10/26 10:09:10;;;;;;;1999.90;999.90;;;10.00;99.90;;;;;;4916986;29;20048;-78
2023/10/26 10:11:36;;;;;;;1999.90;999.90;;;10.10;99.90;;;;;;4916805;29;20058;-79
2023/10/26 10:14:02;;;;;;;1999.90;999.90;;;10.10;99.90;;;;;;4917884;29;20468;-78
2023/10/26 10:16:34;;;;;;;1999.90;999.90;;;10.20;99.90;;;;;;4932735;29;20059;-77
2023/10/26 10:19:21;;;;;;;1999.90;999.90;;;10.20;99.90;;;;;;4916572;29;20515;-79
2023/10/26 10:21:48;;;;;;;1999.90;999.90;;;10.30;99.90;;;;;;4917192;29;20044;-80
2023/10/26 10:24:39;;;;;;;1999.90;999.90;;;10.40;99.90;;;;;;4916970;29;20040;-80
2023/10/26 10:27:18;;;;;;;1999.90;999.90;;;10.40;99.90;;;;;;4901247;29;20047;-79
2023/10/26 10:29:44;;;;;;;1999.90;999.90;;;10.50;99.90;;;;;;4917443;29;20066;-77
2023/10/26 10:32:45;;;;;;;1999.90;999.90;;;10.60;99.90;;;;;;4916783;29;20492;-77
2023/10/26 10:35:36;;;;;;;1999.90;999.90;;;10.60;99.90;;;;;;4916315;29;20093;-78
2023/10/26 10:38:14;;;;;;;1999.90;999.90;;;10.60;99.90;;;;;;4918404;29;20048;-78
2023/10/26 10:40:41;;;;;;;1999.90;999.90;;;10.70;99.90;;;;;;4917650;29;20107;-77
2023/10/26 10:43:07;;;;;;;1999.90;999.90;;;10.60;99.90;;;;;;4916308;29;20047;-79
2023/10/26 10:45:33;;;;;;;1999.90;999.90;;;10.60;99.90;;;;;;4915725;29;20051;-79
2023/10/26 10:47:58;;;;;;;1999.90;999.90;;;10.70;99.90;;;;;;4917571;29;20040;-78
2023/10/26 10:50:26;;;;;;;1999.90;999.90;;;10.60;99.90;;;;;;4917805;29;20040;-79
2023/10/26 10:52:53;;;;;;;1999.90;999.90;;;10.50;99.90;;;;;;4917569;29;20052;-79
2023/10/26 10:55:27;;;;;;;1999.90;999.90;;;10.70;99.90;;;;;;4917625;29;20108;-77
2023/10/26 10:57:58;;;;;;;1999.90;999.90;;;10.70;99.90;;;;;;4916072;29;20060;-78
2023/10/26 11:00:36;;;;;;;1999.90;999.90;;;10.70;99.90;;;;;;4915707;29;20048;-79
2023/10/26 11:03:02;;;;;;;1999.90;999.90;;;10.80;99.90;;;;;;4916086;29;20078;-78
2023/10/26 11:05:39;;;;;;;1999.90;999.90;;;10.90;99.90;;;;;;4915784;29;20044;-78
2023/10/26 11:08:06;;;;;;;1999.90;999.90;;;10.90;99.90;;;;;;4915937;29;20044;-78
2023/10/26 11:10:32;;;;;;;1999.90;999.90;;;10.90;99.90;;;;;;4915664;29;20564;-78
2023/10/26 11:12:58;;;;;;;1999.90;999.90;;;11.00;99.90;;;;;;4916079;29;20496;-79
2023/10/26 11:15:31;;;;;;;1999.90;999.90;;;11.00;99.90;;;;;;4915789;29;20135;-78
2023/10/26 11:17:57;;;;;;;1999.90;999.90;;;11.10;99.90;;;;;;4915982;29;20479;-79
2023/10/26 11:20:34;;;;;;;1999.90;999.90;;;11.00;99.90;;;;;;4915725;29;20079;-82
2023/10/26 11:23:00;;;;;;;1999.90;999.90;;;11.00;99.90;;;;;;4915414;29;20036;-79
2023/10/26 11:25:26;;;;;;;1999.90;999.90;;;11.10;99.90;;;;;;4914931;29;20104;-81
2023/10/26 11:27:52;;;;;;;1999.90;999.90;;;11.10;99.90;;;;;;4915480;29;20040;-78
2023/10/26 11:30:18;;;;;;;1999.90;999.90;;;11.10;99.90;;;;;;4915609;29;20040;-81
2023/10/26 11:32:44;;;;;;;1999.90;999.90;;;11.10;99.90;;;;;;4915787;29;20086;-81
2023/10/26 11:35:13;;;;;;;1999.90;999.90;;;11.10;99.90;;;;;;4915733;29;20131;-78
2023/10/26 11:37:47;;;;;;;1999.90;999.90;;;11.10;99.90;;;;;;4915673;29;20078;-77
2023/10/26 11:40:14;;;;;;;1999.90;999.90;;;11.10;99.90;;;;;;4916019;29;20059;-79
2023/10/26 11:42:44;;;;;;;1999.90;999.90;;;11.10;99.90;;;;;;4915714;29;20405;-77
2023/10/26 11:45:11;;;;;;;1999.90;999.90;;;11.10;99.90;;;;;;4915480;29;20048;-77
2023/10/26 11:48:03;;;;;;;1999.90;999.90;;;11.10;99.90;;;;;;4915816;29;20098;-79
2023/10/26 11:50:36;;;;;;;1999.90;999.90;;;11.30;99.90;;;;;;4899783;29;20052;-77
2023/10/26 11:53:03;;;;;;;1999.90;999.90;;;11.40;99.90;;;;;;4915807;29;20457;-77
2023/10/26 11:55:31;;;;;;;1999.90;999.90;;;11.40;99.90;;;;;;4915489;29;20048;-79
2023/10/26 11:58:02;;;;;;;1999.90;999.90;;;11.40;99.90;;;;;;4919166;29;20126;-79
2023/10/26 12:00:29;;;;;;;1999.90;999.90;;;11.40;99.90;;;;;;4919000;29;20051;-80
2023/10/26 12:02:56;;;;;;;1999.90;999.90;;;11.50;99.90;;;;;;4919321;29;20092;-79
2023/10/26 12:05:23;;;;;;;1999.90;999.90;;;11.40;99.90;;;;;;4919214;29;20055;-77
2023/10/26 12:07:49;;;;;;;1999.90;999.90;;;11.50;99.90;;;;;;4919078;29;20079;-80
2023/10/26 12:10:17;;;;;;;1999.90;999.90;;;11.60;99.90;;;;;;4918986;29;20131;-79
2023/10/26 12:12:43;;;;;;;1999.90;999.90;;;11.80;99.90;;;;;;4918984;29;20127;-78
2023/10/26 12:15:09;;;;;;;1999.90;999.90;;;11.90;99.90;;;;;;4919180;29;20063;-79
2023/10/26 12:17:35;;;;;;;1999.90;999.90;;;12.00;99.90;;;;;;4919265;29;20103;-78
2023/10/26 12:20:02;;;;;;;1999.90;999.90;;;12.20;99.90;;;;;;4919608;29;20448;-78
2023/10/26 12:22:29;;;;;;;1999.90;999.90;;;12.20;99.90;;;;;;4919616;29;20048;-77
2023/10/26 12:24:54;;;;;;;1999.90;999.90;;;12.20;99.90;;;;;;4918926;29;20043;-80
2023/10/26 12:27:20;;;;;;;1999.90;999.90;;;12.00;99.90;;;;;;4918711;29;20067;-79
2023/10/26 12:29:47;;;;;;;1999.90;999.90;;;12.00;99.90;;;;;;4919008;29;20047;-77
2023/10/26 12:32:13;;;;;;;1999.90;999.90;;;12.10;99.90;;;;;;4918849;29;20519;-80
2023/10/26 12:34:40;;;;;;;1999.90;999.90;;;12.30;99.90;;;;;;4918855;29;20080;-79
2023/10/26 12:37:06;;;;;;;1999.90;999.90;;;12.50;99.90;;;;;;4918868;29;20079;-79
2023/10/26 12:39:32;;;;;;;1999.90;999.90;;;12.60;99.90;;;;;;4918500;29;20100;-78
2023/10/26 12:41:58;;;;;;;1999.90;999.90;;;12.70;99.90;;;;;;4919198;29;20099;-78
2023/10/26 12:44:24;;;;;;;1999.90;999.90;;;12.80;99.90;;;;;;4918751;29;20440;-81
2023/10/26 12:46:54;;;;;;;1999.90;999.90;;;12.90;99.90;;;;;;4918340;29;20124;-77
2023/10/26 12:49:23;;;;;;;1999.90;999.90;;;12.90;99.90;;;;;;4919523;29;20103;-79
2023/10/26 12:51:49;;;;;;;1999.90;999.90;;;12.90;99.90;;;;;;4918256;29;20060;-77
2023/10/26 12:54:15;;;;;;;1999.90;999.90;;;13.00;99.90;;;;;;4918766;29;20044;-80
2023/10/26 12:56:41;;;;;;;1999.90;999.90;;;13.00;99.90;;;;;;4919026;29;20470;-79
2023/10/26 12:59:06;;;;;;;1999.90;999.90;;;12.80;99.90;;;;;;4918874;29;20156;-78
2023/10/26 13:01:32;;;;;;;1999.90;999.90;;;12.70;99.90;;;;;;4918610;29;20076;-78
2023/10/26 13:03:57;;;;;;;1999.90;999.90;;;12.60;99.90;;;;;;4918817;29;20040;-79
2023/10/26 13:06:23;;;;;;;1999.90;999.90;;;12.50;99.90;;;;;;4918210;29;20044;-77
2023/10/26 13:08:49;;;;;;;1999.90;999.90;;;12.40;99.90;;;;;;4919346;29;20436;-79
2023/10/26 13:11:15;;;;;;;1999.90;999.90;;;12.40;99.90;;;;;;4918040;29;20072;-79
2023/10/26 13:13:41;;;;;;;1999.90;999.90;;;12.30;99.90;;;;;;4917991;29;20441;-79
2023/10/26 13:16:10;;;;;;;1999.90;999.90;;;12.30;99.90;;;;;;4917957;29;20040;-79
2023/10/26 13:18:37;;;;;;;1999.90;999.90;;;12.30;99.90;;;;;;4918272;29;20135;-77
2023/10/26 13:21:04;;;;;;;1999.90;999.90;;;12.30;99.90;;;;;;4917946;29;20054;-78
2023/10/26 13:23:30;;;;;;;1999.90;999.90;;;12.20;99.90;;;;;;4918385;29;20070;-79
2023/10/26 13:25:56;;;;;;;1999.90;999.90;;;12.10;99.90;;;;;;4919426;29;20449;-80
2023/10/26 13:28:22;;;;;;;1999.90;999.90;;;12.10;99.90;;;;;;4918003;29;20044;-81
2023/10/26 13:30:48;;;;;;;1999.90;999.90;;;12.00;99.90;;;;;;4917732;29;20131;-78
2023/10/26 13:33:15;;;;;;;1999.90;999.90;;;11.90;99.90;;;;;;4917540;29;20131;-78
2023/10/26 13:35:41;;;;;;;1999.90;999.90;;;11.90;99.90;;;;;;4917543;29;20041;-78
2023/10/26 13:38:13;;;;;;;1999.90;999.90;;;11.80;99.90;;;;;;4917653;29;20052;-79
2023/10/26 13:40:42;;;;;;;1999.90;999.90;;;11.80;99.90;;;;;;4917236;29;20044;-78
2023/10/26 13:43:09;;;;;;;1999.90;999.90;;;11.70;99.90;;;;;;4933499;29;20127;-79
2023/10/26 13:45:35;;;;;;;1999.90;999.90;;;11.80;99.90;;;;;;4918412;29;20044;-79
2023/10/26 13:48:01;;;;;;;1999.90;999.90;;;11.80;99.90;;;;;;4918702;29;20472;-79
2023/10/26 13:50:29;;;;;;;1999.90;999.90;;;11.80;99.90;;;;;;4917168;29;20048;-79
2023/10/26 13:52:54;;;;;;;1999.90;999.90;;;11.90;99.90;;;;;;4917152;29;20458;-80
2023/10/26 13:55:20;;;;;;;1999.90;999.90;;;11.90;99.90;;;;;;4917540;29;20143;-79
2023/10/26 13:57:46;;;;;;;1999.90;999.90;;;12.00;99.90;;;;;;4917431;29;20079;-79
2023/10/26 14:00:12;;;;;;;1999.90;999.90;;;12.00;99.90;;;;;;4917185;29;20489;-79
2023/10/26 14:02:39;;;;;;;1999.90;999.90;;;12.00;99.90;;;;;;4917060;29;20051;-80
2023/10/26 14:05:11;;;;;;;1999.90;999.90;;;12.00;99.90;;;;;;4917316;29;20369;-80
2023/10/26 14:07:37;;;;;;;1999.90;999.90;;;11.90;99.90;;;;;;4918027;29;20044;-78
2023/10/26 14:10:05;;;;;;;1999.90;999.90;;;11.80;99.90;;;;;;4917010;29;20044;-79
2023/10/26 14:12:31;;;;;;;1999.90;999.90;;;11.80;99.90;;;;;;4917273;29;20044;-77
2023/10/26 14:15:00;;;;;;;1999.90;999.90;;;11.70;99.90;;;;;;4917246;29;20365;-80
2023/10/26 14:17:27;;;;;;;1999.90;999.90;;;11.70;99.90;;;;;;4916942;29;20062;-78
2023/10/26 14:19:53;;;;;;;1999.90;999.90;;;11.70;99.90;;;;;;4915897;29;20047;-79
2023/10/26 14:22:18;;;;;;;1999.90;999.90;;;11.60;99.90;;;;;;4916755;29;20044;-77
2023/10/26 14:24:44;;;;;;;1999.90;999.90;;;11.60;99.90;;;;;;4917094;29;20124;-80
2023/10/26 14:27:10;;;;;;;1999.90;999.90;;;11.60;99.90;;;;;;4932756;29;20480;-79
2023/10/26 14:29:35;;;;;;;1999.90;999.90;;;11.60;99.90;;;;;;4916596;29;20080;-79
2023/10/26 14:32:01;;;;;;;1999.90;999.90;;;11.50;99.90;;;;;;4916429;29;20047;-78
2023/10/26 14:34:27;;;;;;;1999.90;999.90;;;11.60;99.90;;;;;;4916614;29;20044;-78
2023/10/26 14:36:53;;;;;;;1999.90;999.90;;;11.50;99.90;;;;;;4917011;29;20059;-78
2023/10/26 14:39:19;;;;;;;1999.90;999.90;;;11.50;99.90;;;;;;4916637;29;20052;-78
2023/10/26 14:41:46;;;;;;;1999.90;999.90;;;11.50;99.90;;;;;;4916287;29;20507;-78
2023/10/26 14:44:15;;;;;;;1999.90;999.90;;;11.40;99.90;;;;;;4916241;29;20488;-81
2023/10/26 14:46:40;;;;;;;1999.90;999.90;;;11.40;99.90;;;;;;4916297;29;20036;-77
2023/10/26 14:49:06;;;;;;;1999.90;999.90;;;11.30;99.90;;;;;;4917466;29;20444;-79
2023/10/26 14:51:32;;;;;;;1999.90;999.90;;;11.30;99.90;;;;;;4900462;29;20099;-78
2023/10/26 14:53:57;;;;;;;1999.90;999.90;;;11.30;99.90;;;;;;4916148;29;20039;-79
2023/10/26 14:56:23;;;;;;;1999.90;999.90;;;11.30;99.90;;;;;;4916041;29;20044;-78
2023/10/26 14:58:53;;;;;;;1999.90;999.90;;;11.30;99.90;;;;;;4915999;29;20400;-77
2023/10/26 15:01:18;;;;;;;1999.90;999.90;;;11.30;99.90;;;;;;4915767;29;20043;-77
2023/10/26 15:03:44;;;;;;;1999.90;999.90;;;11.30;99.90;;;;;;4915933;29;20036;-77